Time;durP1;ratioP1;P1;durP2;ratioP2;P2;SDS_P1;SDS_P2;PMS_P1;PMS_P2;Temp;Humidity;BMP_temperature;BMP_pressure;BME280_temperature;BME280_humidity;BME280_pressure;Samples;Min_cycle;Max_cycle;Signal;HPM_P1;HPM_P2
2020/12/15 00:01:09;;;;;;;12.35;8.10;;;4.50;82.00;;;;;;5067954;28;20041;-67
2020/12/15 00:03:34;;;;;;;13.00;8.30;;;4.60;82.00;;;;;;5066851;28;20032;-67
2020/12/15 00:06:00;;;;;;;12.85;8.50;;;4.50;81.90;;;;;;5060579;28;20040;-67
2020/12/15 00:08:26;;;;;;;12.88;9.02;;;4.50;81.80;;;;;;5065909;28;20104;-68
2020/12/15 00:10:51;;;;;;;17.23;9.50;;;4.50;81.80;;;;;;5067204;28;20060;-67
2020/12/15 00:13:17;;;;;;;13.23;9.30;;;4.50;81.60;;;;;;5069714;28;20589;-67
2020/12/15 00:15:42;;;;;;;14.00;8.85;;;4.50;81.60;;;;;;5066512;28;20056;-68
2020/12/15 00:18:09;;;;;;;12.88;8.18;;;4.50;81.60;;;;;;5067006;28;20266;-67
2020/12/15 00:20:35;;;;;;;12.68;8.38;;;4.50;81.50;;;;;;5066643;28;20051;-66
2020/12/15 00:23:01;;;;;;;12.73;8.68;;;4.50;81.60;;;;;;5066261;28;20400;-67
2020/12/15 00:25:27;;;;;;;11.60;8.23;;;4.50;81.70;;;;;;5061988;28;20059;-66
2020/12/15 00:27:52;;;;;;;11.13;7.45;;;4.40;81.70;;;;;;5067159;28;20049;-68
2020/12/15 00:30:18;;;;;;;10.30;7.38;;;4.40;81.60;;;;;;5067733;28;20077;-67
2020/12/15 00:32:48;;;;;;;10.38;7.68;;;4.40;81.70;;;;;;5066402;28;20047;-67
2020/12/15 00:35:13;;;;;;;11.02;7.32;;;4.50;81.80;;;;;;5067283;28;20025;-68
2020/12/15 00:37:39;;;;;;;11.48;7.72;;;4.40;81.80;;;;;;5058176;28;20404;-66
2020/12/15 00:40:05;;;;;;;10.45;7.47;;;4.40;81.90;;;;;;5066330;28;20048;-67
2020/12/15 00:42:31;;;;;;;10.45;7.13;;;4.40;82.00;;;;;;5065478;28;20041;-67
2020/12/15 00:44:57;;;;;;;12.23;7.60;;;4.50;82.10;;;;;;5068263;28;20035;-67
2020/12/15 00:47:22;;;;;;;10.98;7.50;;;4.40;82.10;;;;;;5067722;28;20400;-67
2020/12/15 00:49:48;;;;;;;10.48;7.35;;;4.40;82.10;;;;;;5067496;28;20025;-67
2020/12/15 00:52:14;;;;;;;11.68;7.40;;;4.40;82.10;;;;;;5067383;28;20048;-68
2020/12/15 00:54:39;;;;;;;12.45;8.38;;;4.50;82.20;;;;;;5065468;28;20491;-67
2020/12/15 00:57:05;;;;;;;9.73;7.32;;;4.50;82.20;;;;;;5059895;28;20513;-67
2020/12/15 00:59:31;;;;;;;10.90;7.57;;;4.40;82.10;;;;;;5063658;28;20040;-66
2020/12/15 01:01:58;;;;;;;10.40;7.38;;;4.40;82.10;;;;;;5066959;28;20041;-67
2020/12/15 01:04:23;;;;;;;11.82;8.02;;;4.40;82.20;;;;;;5066593;28;20045;-67
2020/12/15 01:06:49;;;;;;;11.90;7.30;;;4.40;82.30;;;;;;5068382;28;20529;-68
2020/12/15 01:09:15;;;;;;;11.07;7.22;;;4.40;82.40;;;;;;5069046;28;20032;-67
2020/12/15 01:11:41;;;;;;;12.65;7.72;;;4.40;82.50;;;;;;5066044;28;20454;-67
2020/12/15 01:14:07;;;;;;;11.00;7.72;;;4.40;82.50;;;;;;5067694;28;20718;-67
2020/12/15 01:16:35;;;;;;;11.45;8.05;;;4.40;82.50;;;;;;5065169;28;20114;-66
2020/12/15 01:19:01;;;;;;;11.75;8.40;;;4.40;82.40;;;;;;5065498;28;20060;-67
2020/12/15 01:21:30;;;;;;;11.45;7.82;;;4.40;82.40;;;;;;5062295;28;20075;-67
2020/12/15 01:23:56;;;;;;;10.20;7.25;;;4.40;82.40;;;;;;5067672;28;20511;-66
2020/12/15 01:26:22;;;;;;;13.65;8.73;;;4.40;82.50;;;;;;5067079;28;20051;-67
2020/12/15 01:28:48;;;;;;;10.93;7.57;;;4.40;82.60;;;;;;5066765;28;20122;-68
2020/12/15 01:31:14;;;;;;;10.20;7.68;;;4.50;82.60;;;;;;5067714;28;20430;-68
2020/12/15 01:33:40;;;;;;;13.63;7.95;;;4.50;82.60;;;;;;5066857;28;20029;-68
2020/12/15 01:36:05;;;;;;;11.27;7.85;;;4.50;82.60;;;;;;5067842;28;20040;-68
2020/12/15 01:38:31;;;;;;;11.10;7.97;;;4.50;82.60;;;;;;5066342;28;20115;-67
2020/12/15 01:40:57;;;;;;;9.90;7.43;;;4.50;82.50;;;;;;5059744;28;20047;-68
2020/12/15 01:43:22;;;;;;;12.55;7.97;;;4.50;82.50;;;;;;5054233;28;20083;-67
2020/12/15 01:45:48;;;;;;;10.68;7.90;;;4.50;82.60;;;;;;5067511;28;20082;-68
2020/12/15 01:48:14;;;;;;;10.85;7.60;;;4.40;82.50;;;;;;5054519;28;20124;-68
2020/12/15 01:50:40;;;;;;;11.75;8.05;;;4.40;82.60;;;;;;5064703;28;20161;-66
2020/12/15 01:53:09;;;;;;;10.88;7.72;;;4.40;82.60;;;;;;5069051;28;20449;-67
2020/12/15 01:55:37;;;;;;;11.65;8.50;;;4.40;82.60;;;;;;5066921;28;20041;-67
2020/12/15 01:58:03;;;;;;;12.27;8.30;;;4.40;82.70;;;;;;5071016;28;20025;-68
2020/12/15 02:00:29;;;;;;;11.30;8.40;;;4.40;82.80;;;;;;5063977;28;20115;-67
2020/12/15 02:02:55;;;;;;;13.13;8.38;;;4.40;82.90;;;;;;5066571;28;20044;-65
2020/12/15 02:05:21;;;;;;;10.45;8.00;;;4.30;83.00;;;;;;5065661;28;20021;-65
2020/12/15 02:07:47;;;;;;;11.38;8.25;;;4.30;83.00;;;;;;5055802;28;20048;-67
2020/12/15 02:10:13;;;;;;;10.50;8.00;;;4.30;83.20;;;;;;5060519;28;20028;-68
2020/12/15 02:12:40;;;;;;;12.98;8.85;;;4.30;83.20;;;;;;5064538;28;20043;-68
2020/12/15 02:15:06;;;;;;;11.32;8.52;;;4.40;83.30;;;;;;5068675;28;20641;-66
2020/12/15 02:17:32;;;;;;;11.30;8.07;;;4.40;83.30;;;;;;5066823;28;20062;-66
2020/12/15 02:20:16;;;;;;;11.98;8.23;;;4.40;83.40;;;;;;5058640;28;20537;-68
2020/12/15 02:22:42;;;;;;;11.27;8.25;;;4.40;83.50;;;;;;5060598;28;20044;-68
2020/12/15 02:25:09;;;;;;;11.32;8.13;;;4.40;83.30;;;;;;5070514;28;20082;-67
2020/12/15 02:27:35;;;;;;;11.90;8.35;;;4.40;83.40;;;;;;5062929;28;20047;-68
2020/12/15 02:30:00;;;;;;;14.20;8.60;;;4.40;83.50;;;;;;5064676;28;20036;-67
2020/12/15 02:32:26;;;;;;;10.40;7.80;;;4.50;83.60;;;;;;5062548;28;20029;-68
2020/12/15 02:34:56;;;;;;;11.75;8.45;;;4.40;84.40;;;;;;5067759;28;20653;-68
2020/12/15 02:37:22;;;;;;;10.73;8.57;;;4.50;83.50;;;;;;5066864;28;21868;-68
2020/12/15 02:39:47;;;;;;;11.77;8.70;;;4.50;83.50;;;;;;5067146;28;20032;-67
2020/12/15 02:42:13;;;;;;;12.38;8.35;;;4.60;83.40;;;;;;5066167;28;20028;-67
2020/12/15 02:44:39;;;;;;;12.68;8.93;;;4.60;83.30;;;;;;5064236;28;20495;-68
2020/12/15 02:47:04;;;;;;;12.10;8.95;;;4.60;83.40;;;;;;5063232;28;20127;-68
2020/12/15 02:49:30;;;;;;;11.38;8.40;;;4.60;83.30;;;;;;5063417;28;20036;-68
2020/12/15 02:51:56;;;;;;;11.43;8.77;;;4.60;83.30;;;;;;5070059;28;20507;-68
2020/12/15 02:54:22;;;;;;;13.23;9.13;;;4.60;83.30;;;;;;5066222;28;20164;-67
2020/12/15 02:56:48;;;;;;;11.75;8.88;;;4.60;83.30;;;;;;5060596;28;20062;-68
2020/12/15 02:59:14;;;;;;;12.90;8.90;;;4.60;84.00;;;;;;5063700;28;20055;-66
2020/12/15 03:01:41;;;;;;;13.48;8.77;;;4.60;83.30;;;;;;5072141;28;20127;-68
2020/12/15 03:04:07;;;;;;;12.45;9.02;;;4.60;83.30;;;;;;5068319;28;20041;-69
2020/12/15 03:06:33;;;;;;;12.35;9.05;;;4.60;83.30;;;;;;5051573;28;20081;-68
2020/12/15 03:08:59;;;;;;;13.23;9.65;;;4.60;83.40;;;;;;5068451;28;20032;-68
2020/12/15 03:11:25;;;;;;;13.07;9.00;;;4.60;83.50;;;;;;5062937;28;20071;-68
2020/12/15 03:13:51;;;;;;;13.05;9.35;;;4.60;83.50;;;;;;5070886;28;20575;-68
2020/12/15 03:16:16;;;;;;;13.43;9.73;;;4.70;83.50;;;;;;5065521;28;20033;-68
2020/12/15 03:18:42;;;;;;;14.13;9.10;;;4.70;83.40;;;;;;5062784;28;20120;-68
2020/12/15 03:21:08;;;;;;;14.60;10.30;;;4.70;83.50;;;;;;5062563;28;20037;-68
2020/12/15 03:23:34;;;;;;;13.57;8.77;;;4.70;83.50;;;;;;5066666;28;20380;-68
2020/12/15 03:26:00;;;;;;;13.60;8.93;;;4.70;83.50;;;;;;5065497;28;20570;-68
2020/12/15 03:28:26;;;;;;;11.85;8.60;;;4.70;83.60;;;;;;5067055;28;20041;-68
2020/12/15 03:30:51;;;;;;;13.13;9.23;;;4.70;83.70;;;;;;5063676;28;20035;-68
2020/12/15 03:33:18;;;;;;;13.88;9.80;;;4.70;84.40;;;;;;5064357;28;20029;-68
2020/12/15 03:35:44;;;;;;;13.07;8.98;;;4.70;83.60;;;;;;5066293;28;20403;-68
2020/12/15 03:38:10;;;;;;;15.68;10.55;;;4.70;83.60;;;;;;5068821;28;20555;-68
2020/12/15 03:40:36;;;;;;;14.48;9.82;;;4.70;83.70;;;;;;5064993;28;20032;-67
2020/12/15 03:43:03;;;;;;;14.05;9.95;;;4.70;83.70;;;;;;5062320;28;20032;-69
2020/12/15 03:45:30;;;;;;;15.15;10.07;;;4.70;83.60;;;;;;5064550;28;20024;-68
2020/12/15 03:47:56;;;;;;;15.15;9.98;;;4.70;83.70;;;;;;5065034;28;20024;-68
2020/12/15 03:50:22;;;;;;;13.98;9.60;;;4.80;83.70;;;;;;5067008;28;20039;-67
2020/12/15 03:52:47;;;;;;;15.43;10.15;;;4.80;83.70;;;;;;5061067;28;20174;-68
2020/12/15 03:55:13;;;;;;;14.30;9.93;;;4.80;83.70;;;;;;5062256;28;20036;-68
2020/12/15 03:57:39;;;;;;;13.88;9.52;;;4.80;83.70;;;;;;5062137;28;20732;-67
2020/12/15 04:00:07;;;;;;;13.82;10.00;;;4.80;83.50;;;;;;5056101;28;20037;-67
2020/12/15 04:02:33;;;;;;;13.75;9.85;;;4.80;83.30;;;;;;5068160;28;20037;-68
2020/12/15 04:04:59;;;;;;;12.23;9.35;;;4.80;83.30;;;;;;5064980;28;20047;-68
2020/12/15 04:07:25;;;;;;;12.18;8.35;;;4.80;83.20;;;;;;5059889;28;20032;-68
2020/12/15 04:09:50;;;;;;;12.45;9.20;;;4.70;83.20;;;;;;5065067;28;20037;-68
2020/12/15 04:12:16;;;;;;;10.95;8.73;;;4.70;83.20;;;;;;5065896;28;20504;-68
2020/12/15 04:14:42;;;;;;;11.55;8.82;;;4.70;83.10;;;;;;5064771;28;20099;-68
2020/12/15 04:17:11;;;;;;;11.10;8.20;;;4.70;83.00;;;;;;5064605;28;20029;-68
2020/12/15 04:19:37;;;;;;;12.77;8.60;;;4.60;83.00;;;;;;5065562;28;20033;-68
2020/12/15 04:22:06;;;;;;;19.33;9.43;;;4.60;83.00;;;;;;5063170;28;20072;-68
2020/12/15 04:24:32;;;;;;;12.77;8.15;;;4.60;83.00;;;;;;5061037;28;20036;-68
2020/12/15 04:26:58;;;;;;;12.45;8.60;;;4.50;83.10;;;;;;5065195;28;20040;-68
2020/12/15 04:29:24;;;;;;;10.82;8.05;;;4.50;83.20;;;;;;5063606;28;20515;-68
2020/12/15 04:31:50;;;;;;;10.68;7.85;;;4.50;84.00;;;;;;5064361;28;20033;-68
2020/12/15 04:34:16;;;;;;;11.85;8.07;;;4.60;83.10;;;;;;5067791;28;20160;-68
2020/12/15 04:36:41;;;;;;;10.57;7.70;;;4.60;83.00;;;;;;5056368;28;20064;-68
2020/12/15 04:39:07;;;;;;;11.63;7.80;;;4.60;83.00;;;;;;5062545;28;20044;-68
2020/12/15 04:41:33;;;;;;;10.15;7.22;;;4.50;82.90;;;;;;5061453;28;20146;-67
2020/12/15 04:43:59;;;;;;;10.43;7.35;;;4.40;82.80;;;;;;5058018;28;20402;-67
2020/12/15 04:46:27;;;;;;;85.93;43.85;;;4.50;83.00;;;;;;5058035;28;20064;-68
2020/12/15 04:49:06;;;;;;;22.88;13.32;;;4.50;83.20;;;;;;5056748;28;20168;-68
2020/12/15 04:51:38;;;;;;;24.70;14.90;;;4.50;83.00;;;;;;5061435;28;20036;-68
2020/12/15 04:54:04;;;;;;;15.80;10.70;;;4.50;82.90;;;;;;5059808;28;20025;-68
2020/12/15 04:56:30;;;;;;;16.00;10.93;;;4.50;82.80;;;;;;5061761;28;20102;-68
2020/12/15 04:58:58;;;;;;;20.58;13.30;;;4.50;82.70;;;;;;5064770;28;20036;-68
2020/12/15 05:01:25;;;;;;;21.05;13.65;;;4.50;82.60;;;;;;5064041;28;20098;-68
2020/12/15 05:03:52;;;;;;;17.50;11.63;;;4.50;82.60;;;;;;5061942;28;20048;-68
2020/12/15 05:06:26;;;;;;;12.90;8.88;;;4.50;82.60;;;;;;5067808;28;20487;-68
2020/12/15 05:08:52;;;;;;;11.30;8.50;;;4.50;82.50;;;;;;5064160;28;20033;-68
2020/12/15 05:11:17;;;;;;;11.23;8.25;;;4.50;82.50;;;;;;5054804;28;20033;-68
2020/12/15 05:13:43;;;;;;;12.02;8.30;;;4.50;82.50;;;;;;5062714;28;20103;-67
2020/12/15 05:16:09;;;;;;;10.40;7.75;;;4.40;82.40;;;;;;5067045;28;20457;-67
2020/12/15 05:18:35;;;;;;;11.15;8.10;;;4.40;82.50;;;;;;5063961;28;20041;-67
2020/12/15 05:21:15;;;;;;;10.35;7.50;;;4.40;82.60;;;;;;5079264;28;20140;-68
2020/12/15 05:23:45;;;;;;;10.57;7.97;;;4.40;82.70;;;;;;5061979;28;20551;-68
2020/12/15 05:26:11;;;;;;;11.13;8.10;;;4.40;82.80;;;;;;5066006;28;20688;-68
2020/12/15 05:28:36;;;;;;;9.68;6.88;;;4.40;82.80;;;;;;5063136;28;20070;-68
2020/12/15 05:31:02;;;;;;;11.80;7.78;;;4.40;82.80;;;;;;5065987;28;20411;-68
2020/12/15 05:33:28;;;;;;;11.45;8.35;;;4.50;83.70;;;;;;5066449;28;20062;-69
2020/12/15 05:35:53;;;;;;;9.93;7.00;;;4.50;82.80;;;;;;5069708;28;20047;-68
2020/12/15 05:38:19;;;;;;;11.32;7.50;;;4.50;82.80;;;;;;5066392;28;20036;-68
2020/12/15 05:40:44;;;;;;;12.10;7.70;;;4.50;82.60;;;;;;5065130;28;20040;-68
2020/12/15 05:43:12;;;;;;;11.43;7.22;;;4.50;82.60;;;;;;5063408;28;20120;-68
2020/12/15 05:45:38;;;;;;;9.65;7.82;;;4.50;82.70;;;;;;5070029;28;20468;-70
2020/12/15 05:48:08;;;;;;;10.77;7.75;;;4.50;82.60;;;;;;5068577;28;20515;-68
2020/12/15 05:50:35;;;;;;;13.13;8.85;;;4.50;82.70;;;;;;5067898;28;20033;-68
2020/12/15 05:53:04;;;;;;;19.10;12.40;;;4.50;82.60;;;;;;5069736;28;20032;-68
2020/12/15 05:55:30;;;;;;;18.92;12.35;;;4.50;82.50;;;;;;5069450;28;20094;-68
2020/12/15 05:57:56;;;;;;;15.75;10.32;;;4.60;82.50;;;;;;5067306;28;20029;-68
2020/12/15 06:00:28;;;;;;;16.58;10.90;;;4.50;82.30;;;;;;5070402;28;20052;-68
2020/12/15 06:03:05;;;;;;;18.77;11.48;;;4.50;82.30;;;;;;5062912;28;20124;-68
2020/12/15 06:05:35;;;;;;;16.15;10.55;;;4.50;82.10;;;;;;5067981;28;20569;-68
2020/12/15 06:08:05;;;;;;;15.02;11.23;;;4.50;82.00;;;;;;5068620;28;20115;-68
2020/12/15 06:10:31;;;;;;;14.23;10.73;;;4.50;81.90;;;;;;5061735;28;20090;-68
2020/12/15 06:13:00;;;;;;;13.50;10.35;;;4.40;81.70;;;;;;5069578;28;20056;-68
2020/12/15 06:15:26;;;;;;;13.77;10.07;;;4.40;81.70;;;;;;5068070;28;20036;-67
2020/12/15 06:18:00;;;;;;;15.80;10.30;;;4.30;81.70;;;;;;5061519;28;20040;-68
2020/12/15 06:20:35;;;;;;;15.05;10.23;;;4.30;81.80;;;;;;5043520;28;20470;-68
2020/12/15 06:23:03;;;;;;;14.65;10.15;;;4.30;81.60;;;;;;5059232;28;20128;-68
2020/12/15 06:25:31;;;;;;;13.32;10.13;;;4.30;81.60;;;;;;5061052;28;20039;-67
2020/12/15 06:28:08;;;;;;;12.85;9.73;;;4.30;81.40;;;;;;5064429;28;20450;-68
2020/12/15 06:30:45;;;;;;;14.95;10.00;;;4.30;81.40;;;;;;5066180;28;20062;-68
2020/12/15 06:33:14;;;;;;;15.65;10.60;;;4.20;81.40;;;;;;5062603;28;20082;-68
2020/12/15 06:35:44;;;;;;;16.10;10.88;;;4.30;81.40;;;;;;5062608;28;21846;-68
2020/12/15 06:38:18;;;;;;;16.77;11.30;;;4.20;81.40;;;;;;5059968;28;20033;-67
2020/12/15 06:40:46;;;;;;;21.13;12.73;;;4.20;80.90;;;;;;5059756;28;20274;-68
2020/12/15 06:43:24;;;;;;;21.67;12.68;;;4.10;80.90;;;;;;5058061;28;20035;-68
2020/12/15 06:45:49;;;;;;;21.45;13.70;;;4.10;80.90;;;;;;5061809;28;20052;-68
2020/12/15 06:48:22;;;;;;;22.33;12.93;;;4.10;81.30;;;;;;5067950;28;20439;-68
2020/12/15 06:50:48;;;;;;;16.65;11.00;;;4.00;81.40;;;;;;5067424;28;20398;-68
2020/12/15 06:53:18;;;;;;;21.83;14.25;;;4.00;81.60;;;;;;5064490;28;20499;-67
2020/12/15 06:55:44;;;;;;;27.20;15.57;;;4.00;81.70;;;;;;5058963;28;20033;-68
2020/12/15 06:58:10;;;;;;;23.05;14.82;;;4.10;81.90;;;;;;5062444;28;20111;-68
2020/12/15 07:00:37;;;;;;;24.58;14.57;;;4.00;82.00;;;;;;5049397;28;20031;-69
2020/12/15 07:03:04;;;;;;;24.38;14.73;;;4.00;82.10;;;;;;5052427;28;20115;-68
2020/12/15 07:05:29;;;;;;;21.05;14.05;;;4.00;82.70;;;;;;5051789;28;20029;-68
2020/12/15 07:07:57;;;;;;;19.27;12.77;;;4.00;81.90;;;;;;5051303;28;20043;-68
2020/12/15 07:10:26;;;;;;;19.35;12.88;;;4.00;81.60;;;;;;5047765;28;20033;-68
2020/12/15 07:12:52;;;;;;;18.83;13.00;;;3.90;81.60;;;;;;5048760;28;20056;-68
2020/12/15 07:15:20;;;;;;;18.08;12.45;;;3.90;81.60;;;;;;5051431;28;20036;-68
2020/12/15 07:17:52;;;;;;;21.65;13.98;;;3.90;81.40;;;;;;5046951;28;20040;-67
2020/12/15 07:20:19;;;;;;;27.25;17.17;;;3.90;81.70;;;;;;5047988;28;20052;-69
2020/12/15 07:22:45;;;;;;;23.70;14.43;;;3.90;81.80;;;;;;5048869;28;22215;-66
2020/12/15 07:25:11;;;;;;;20.05;12.98;;;3.90;82.10;;;;;;5048053;28;20155;-68
2020/12/15 07:27:42;;;;;;;20.15;11.90;;;3.80;82.20;;;;;;5048595;28;20055;-67
2020/12/15 07:30:09;;;;;;;18.10;12.00;;;3.80;82.30;;;;;;5048787;28;20072;-68
2020/12/15 07:32:36;;;;;;;17.08;11.85;;;3.80;82.50;;;;;;5047868;28;20037;-68
2020/12/15 07:35:33;;;;;;;16.80;10.82;;;3.70;82.60;;;;;;5051384;28;20162;-67
2020/12/15 07:38:02;;;;;;;17.02;11.48;;;3.70;83.00;;;;;;5032970;28;20913;-68
2020/12/15 07:40:29;;;;;;;16.75;11.43;;;3.80;83.00;;;;;;5044199;28;20040;-68
2020/12/15 07:43:00;;;;;;;14.75;10.20;;;3.80;83.10;;;;;;5051645;28;20049;-68
2020/12/15 07:45:33;;;;;;;17.00;10.85;;;3.80;83.20;;;;;;5060675;28;20055;-67
2020/12/15 07:48:03;;;;;;;22.70;15.50;;;3.80;83.20;;;;;;5064743;28;20045;-69
2020/12/15 07:50:32;;;;;;;22.25;13.95;;;3.90;83.30;;;;;;5061593;28;20032;-68
2020/12/15 07:53:10;;;;;;;23.73;14.35;;;3.90;83.30;;;;;;5066130;28;20041;-68
2020/12/15 07:55:35;;;;;;;23.50;14.45;;;3.90;83.30;;;;;;5050571;28;20128;-68
2020/12/15 07:58:03;;;;;;;26.23;14.65;;;4.00;83.30;;;;;;5061904;28;20147;-68
2020/12/15 08:00:29;;;;;;;24.42;14.50;;;4.00;83.30;;;;;;5064115;28;20044;-69
2020/12/15 08:03:01;;;;;;;19.13;12.63;;;4.00;83.30;;;;;;5061112;28;20111;-68
2020/12/15 08:05:28;;;;;;;24.55;13.63;;;4.10;83.50;;;;;;5050284;28;20052;-68
2020/12/15 08:07:56;;;;;;;21.00;12.82;;;4.10;83.40;;;;;;5064843;28;20101;-69
2020/12/15 08:10:31;;;;;;;22.83;12.45;;;4.10;83.50;;;;;;5063824;28;20041;-68
2020/12/15 08:12:59;;;;;;;21.75;12.93;;;4.10;83.50;;;;;;5067837;28;20040;-69
2020/12/15 08:15:27;;;;;;;23.25;12.35;;;4.20;83.50;;;;;;5065129;28;20040;-68
2020/12/15 08:17:53;;;;;;;19.67;12.30;;;4.20;83.60;;;;;;5066544;28;20407;-68
2020/12/15 08:20:27;;;;;;;16.40;11.02;;;4.20;83.60;;;;;;5065689;28;20047;-69
2020/12/15 08:23:02;;;;;;;19.73;11.68;;;4.20;83.60;;;;;;5066797;28;20128;-68
2020/12/15 08:25:29;;;;;;;17.63;12.13;;;4.30;83.70;;;;;;5066442;28;20038;-68
2020/12/15 08:28:20;;;;;;;18.52;11.38;;;4.30;83.70;;;;;;5067432;28;20044;-68
2020/12/15 08:30:46;;;;;;;18.45;11.80;;;4.40;83.70;;;;;;5065874;28;20036;-69
2020/12/15 08:33:24;;;;;;;25.65;13.93;;;4.40;83.50;;;;;;5066459;28;20186;-68
2020/12/15 08:35:51;;;;;;;22.08;13.23;;;4.50;84.30;;;;;;5062942;28;20419;-69
2020/12/15 08:38:17;;;;;;;26.10;13.55;;;4.50;83.30;;;;;;5063436;28;20158;-68
2020/12/15 08:40:51;;;;;;;19.38;11.70;;;4.50;83.30;;;;;;5061508;28;20082;-68
2020/12/15 08:43:18;;;;;;;20.58;12.43;;;4.50;83.50;;;;;;5065329;28;20093;-68
2020/12/15 08:45:45;;;;;;;21.83;13.52;;;4.60;83.50;;;;;;5063912;28;20040;-68
2020/12/15 08:48:17;;;;;;;24.05;13.63;;;4.60;83.50;;;;;;5059911;28;20036;-68
2020/12/15 08:50:43;;;;;;;19.75;12.73;;;4.60;83.50;;;;;;5057698;28;20795;-68
2020/12/15 08:53:11;;;;;;;21.73;13.40;;;4.60;83.50;;;;;;5052493;28;20111;-68
2020/12/15 08:55:38;;;;;;;26.00;15.70;;;4.70;83.70;;;;;;5054114;28;20111;-68
2020/12/15 08:58:05;;;;;;;27.52;14.48;;;4.70;83.90;;;;;;5053500;28;20029;-70
2020/12/15 09:00:35;;;;;;;23.30;14.77;;;4.70;83.70;;;;;;5048648;28;20124;-68
2020/12/15 09:03:09;;;;;;;20.48;13.52;;;4.70;83.70;;;;;;5065126;28;20246;-69
2020/12/15 09:05:52;;;;;;;22.83;15.27;;;4.80;83.70;;;;;;5054861;28;20059;-68
2020/12/15 09:08:19;;;;;;;23.17;17.08;;;4.80;83.60;;;;;;5057970;28;20033;-68
2020/12/15 09:10:46;;;;;;;23.23;16.58;;;4.90;83.50;;;;;;5059518;28;20043;-68
2020/12/15 09:13:12;;;;;;;19.67;13.57;;;4.90;83.50;;;;;;5061937;28;20033;-68
2020/12/15 09:15:55;;;;;;;18.13;12.80;;;4.90;83.50;;;;;;5064434;28;20032;-68
2020/12/15 09:18:31;;;;;;;18.25;12.10;;;4.90;83.40;;;;;;5068756;28;20059;-68
2020/12/15 09:21:07;;;;;;;16.70;11.60;;;4.90;83.30;;;;;;5066163;28;20033;-68
2020/12/15 09:23:33;;;;;;;17.95;11.43;;;4.90;83.30;;;;;;5060868;28;20029;-67
2020/12/15 09:25:59;;;;;;;17.38;11.55;;;5.00;83.20;;;;;;5067639;28;20496;-68
2020/12/15 09:28:26;;;;;;;18.83;11.48;;;5.00;83.30;;;;;;5064713;28;20097;-68
2020/12/15 09:30:55;;;;;;;16.58;11.10;;;5.00;83.30;;;;;;5067674;28;20120;-68
2020/12/15 09:33:21;;;;;;;18.20;12.27;;;5.00;83.50;;;;;;5067787;28;20070;-68
2020/12/15 09:35:48;;;;;;;17.92;11.98;;;5.00;83.50;;;;;;5065736;28;20037;-68
2020/12/15 09:38:15;;;;;;;22.20;13.10;;;5.00;83.70;;;;;;5069137;28;20032;-68
2020/12/15 09:40:42;;;;;;;19.30;12.55;;;5.10;83.80;;;;;;5057665;28;20590;-68
2020/12/15 09:43:08;;;;;;;18.25;12.15;;;5.10;83.80;;;;;;5065325;28;20048;-68
2020/12/15 09:45:34;;;;;;;17.70;12.25;;;5.10;83.90;;;;;;5068523;28;20044;-67
2020/12/15 09:48:02;;;;;;;17.52;11.68;;;5.20;83.90;;;;;;5065713;28;20040;-68
2020/12/15 09:50:32;;;;;;;17.30;11.50;;;5.20;84.00;;;;;;5064436;28;20093;-68
2020/12/15 09:52:58;;;;;;;16.13;11.77;;;5.20;84.00;;;;;;5062787;28;20044;-68
2020/12/15 09:55:24;;;;;;;17.38;11.63;;;5.30;84.40;;;;;;5059343;28;20029;-68
2020/12/15 09:57:50;;;;;;;16.73;11.30;;;5.30;84.40;;;;;;5061429;28;20400;-68
2020/12/15 10:00:16;;;;;;;17.35;11.07;;;5.40;84.40;;;;;;5050911;28;20041;-68
2020/12/15 10:02:42;;;;;;;16.02;10.88;;;5.50;84.30;;;;;;5059802;28;20029;-68
2020/12/15 10:05:11;;;;;;;24.08;16.65;;;5.50;84.20;;;;;;5059958;28;20036;-68
2020/12/15 10:07:40;;;;;;;18.42;12.57;;;5.60;84.30;;;;;;5065601;28;20040;-68
2020/12/15 10:10:07;;;;;;;20.27;13.05;;;5.70;84.20;;;;;;5058300;28;20037;-68
2020/12/15 10:12:33;;;;;;;25.10;16.50;;;5.80;84.20;;;;;;5052400;28;20037;-68
2020/12/15 10:14:59;;;;;;;20.30;13.90;;;5.90;84.10;;;;;;5059211;28;20523;-68
2020/12/15 10:17:28;;;;;;;19.58;12.25;;;5.90;84.00;;;;;;5065415;28;20477;-68
2020/12/15 10:19:54;;;;;;;18.08;12.05;;;6.00;83.90;;;;;;5067983;28;20040;-68
2020/12/15 10:22:20;;;;;;;19.65;12.50;;;6.10;83.90;;;;;;5065281;28;20040;-72
2020/12/15 10:24:46;;;;;;;20.98;12.40;;;6.10;83.80;;;;;;5015772;28;65103;-67
2020/12/15 10:27:31;;;;;;;19.65;11.75;;;6.20;83.80;;;7.14;63.43;95307.88;5060437;27;20415;-68
2020/12/15 10:29:57;;;;;;;19.63;11.63;;;6.20;83.60;;;7.14;63.23;95299.81;5037956;28;20045;-66
2020/12/15 10:32:25;;;;;;;21.25;11.70;;;6.30;83.60;;;7.20;63.60;95289.53;5055062;28;20037;-67
2020/12/15 10:34:52;;;;;;;23.33;12.80;;;6.30;83.60;;;7.21;63.42;95286.50;5051061;28;20737;-65
2020/12/15 10:38:33;;;;;;;18.30;11.27;;;6.30;83.50;;;;;;5042523;27;20361;-66
2020/12/15 10:40:59;;;;;;;16.77;11.45;;;6.40;83.30;;;;;;5060674;28;20495;-68
2020/12/15 10:43:26;;;;;;;19.02;11.68;;;6.40;83.30;;;;;;5064510;27;20037;-68
2020/12/15 10:45:52;;;;;;;18.83;12.48;;;6.50;83.30;;;;;;5062046;27;20044;-68
2020/12/15 10:48:18;;;;;;;17.90;11.15;;;6.50;83.30;;;;;;5060832;28;20025;-70
2020/12/15 10:50:44;;;;;;;20.48;11.75;;;6.60;83.40;;;;;;5064904;27;20037;-67
2020/12/15 10:53:10;;;;;;;19.27;11.95;;;6.50;83.20;;;;;;5064200;23;20794;-67
2020/12/15 10:55:37;;;;;;;19.92;12.80;;;6.60;83.20;;;;;;5018949;28;20041;-67
2020/12/15 10:58:04;;;;;;;19.70;13.13;;;6.70;83.10;;;;;;5018361;28;20029;-68
2020/12/15 11:00:30;;;;;;;18.48;12.30;;;6.70;83.10;;;;;;5022139;28;20037;-67
2020/12/15 11:02:56;;;;;;;18.95;12.30;;;6.70;83.20;;;;;;5017608;28;20030;-68
2020/12/15 11:05:22;;;;;;;20.00;12.75;;;6.70;83.30;;;;;;4998707;28;20079;-68
2020/12/15 11:07:48;;;;;;;18.67;12.35;;;6.80;83.30;;;;;;5000697;28;20058;-67
2020/12/15 11:10:15;;;;;;;18.42;12.18;;;6.80;83.20;;;;;;4996442;28;20034;-68
2020/12/15 11:12:41;;;;;;;18.02;11.95;;;6.80;83.10;;;;;;4997455;28;20038;-67
2020/12/15 11:15:07;;;;;;;19.58;12.68;;;6.90;83.30;;;;;;5005852;28;20575;-67
2020/12/15 11:17:33;;;;;;;16.58;11.63;;;6.90;83.40;;;;;;5000164;28;20066;-67
2020/12/15 11:19:58;;;;;;;17.15;11.77;;;7.00;83.70;;;;;;5005919;28;20096;-67
2020/12/15 11:22:24;;;;;;;19.95;11.95;;;7.10;83.90;;;;;;5005051;28;20109;-67
2020/12/15 11:24:50;;;;;;;17.98;11.88;;;7.10;83.80;;;;;;5001847;28;20031;-67
2020/12/15 11:27:16;;;;;;;15.20;10.50;;;7.20;84.70;;;;;;4999634;28;20030;-68
2020/12/15 11:29:42;;;;;;;16.65;10.73;;;7.40;83.90;;;;;;4998504;28;20023;-68
2020/12/15 11:32:08;;;;;;;18.67;10.70;;;7.50;83.80;;;;;;4998459;28;20409;-68
2020/12/15 11:34:34;;;;;;;15.93;10.75;;;7.60;83.40;;;;;;5017352;28;20033;-67
2020/12/15 11:36:59;;;;;;;14.55;10.57;;;7.70;83.30;;;;;;5004160;28;20062;-67
2020/12/15 11:39:25;;;;;;;14.80;9.90;;;7.80;83.10;;;;;;5003656;28;20065;-68
2020/12/15 11:41:51;;;;;;;14.13;9.27;;;7.90;82.80;;;;;;4997990;28;20455;-67
2020/12/15 11:44:18;;;;;;;13.63;9.52;;;8.00;82.50;;;;;;5004180;28;20259;-68
2020/12/15 11:46:47;;;;;;;13.65;9.23;;;8.10;82.30;;;;;;4999438;28;20253;-67
2020/12/15 11:49:13;;;;;;;12.45;8.77;;;8.20;82.00;;;;;;4995866;28;20301;-68
2020/12/15 11:51:39;;;;;;;12.10;8.52;;;8.20;82.00;;;;;;4989180;28;20037;-67
2020/12/15 11:54:05;;;;;;;21.15;9.13;;;8.30;81.80;;;;;;4990179;28;20038;-68
2020/12/15 11:56:31;;;;;;;12.88;8.43;;;8.40;81.70;;;;;;4991249;28;20129;-68
2020/12/15 11:58:56;;;;;;;13.15;9.18;;;8.50;81.70;;;;;;4989479;28;20034;-67
2020/12/15 12:01:22;;;;;;;12.82;9.13;;;8.60;81.80;;;;;;4974382;28;20417;-67
2020/12/15 12:03:48;;;;;;;13.82;9.32;;;8.60;81.50;;;;;;4987477;28;20042;-68
2020/12/15 12:06:14;;;;;;;12.48;8.07;;;8.70;81.20;;;;;;4984338;28;20057;-65
2020/12/15 12:08:40;;;;;;;12.43;8.00;;;8.80;80.80;;;;;;4992949;28;20645;-67
2020/12/15 12:11:06;;;;;;;12.00;7.68;;;8.90;80.50;;;;;;4980856;28;20035;-68
2020/12/15 12:13:31;;;;;;;9.35;7.10;;;8.90;80.10;;;;;;4986335;28;20113;-68
2020/12/15 12:16:01;;;;;;;10.38;7.47;;;9.00;79.80;;;;;;4980915;28;20062;-68
2020/12/15 12:18:28;;;;;;;11.45;7.28;;;9.10;79.60;;;;;;4987418;28;20161;-67
2020/12/15 12:20:53;;;;;;;13.13;8.00;;;9.20;79.80;;;;;;4983702;28;20541;-68
2020/12/15 12:23:19;;;;;;;18.08;9.80;;;9.20;79.60;;;;;;4988605;28;20042;-67
2020/12/15 12:25:45;;;;;;;13.45;8.88;;;9.30;79.60;;;;;;4978333;28;20502;-67
2020/12/15 12:28:11;;;;;;;15.73;9.50;;;9.30;79.60;;;;;;4994098;28;20064;-68
2020/12/15 12:30:37;;;;;;;15.25;9.77;;;9.30;79.60;;;;;;4985876;28;20118;-68
2020/12/15 12:33:03;;;;;;;13.27;9.27;;;9.30;79.50;;;;;;4984457;28;20026;-68
2020/12/15 12:35:29;;;;;;;16.70;9.80;;;9.30;79.50;;;;;;4982729;28;20454;-68
2020/12/15 12:37:55;;;;;;;14.55;9.82;;;9.30;79.40;;;;;;4979653;28;20042;-69
2020/12/15 12:40:20;;;;;;;13.13;9.13;;;9.30;79.40;;;;;;4978110;28;20046;-68
2020/12/15 12:42:48;;;;;;;14.90;9.35;;;9.30;79.50;;;;;;4981662;28;20516;-68